createdAt,value
2023-04-20T00:01:25.576Z,3.00
2023-04-20T00:03:53.869Z,3.00
2023-04-20T00:06:22.687Z,2.73
2023-04-20T00:08:50.579Z,2.97
2023-04-20T00:11:18.406Z,3.87
2023-04-20T00:13:46.587Z,2.80
2023-04-20T00:16:18.564Z,3.37
2023-04-20T00:18:47.863Z,2.90
2023-04-20T00:21:15.855Z,2.70
2023-04-20T00:23:44.112Z,2.77
2023-04-20T00:26:12.002Z,3.00
2023-04-20T00:28:42.299Z,3.07
2023-04-20T00:31:10.686Z,3.40
2023-04-20T00:33:40.006Z,3.47
2023-04-20T00:36:10.168Z,3.57
2023-04-20T00:38:38.281Z,3.23
2023-04-20T00:41:06.258Z,2.73
2023-04-20T00:43:34.167Z,3.03
2023-04-20T00:46:03.719Z,3.20
2023-04-20T00:48:31.866Z,2.97
2023-04-20T00:51:01.175Z,3.30
2023-04-20T00:53:29.652Z,3.13
2023-04-20T00:55:58.175Z,3.40
2023-04-20T00:58:26.368Z,3.47
2023-04-20T01:00:55.462Z,2.90
2023-04-20T01:03:23.729Z,3.67
2023-04-20T01:05:52.616Z,2.83
2023-04-20T01:08:27.492Z,3.37
2023-04-20T01:10:59.124Z,2.80
2023-04-20T01:13:28.785Z,3.10
2023-04-20T01:16:00.019Z,3.67
2023-04-20T01:18:27.978Z,3.10
2023-04-20T01:20:58.069Z,3.40
2023-04-20T01:23:28.260Z,2.90
2023-04-20T01:25:58.197Z,3.30
2023-04-20T01:28:26.891Z,3.50
2023-04-20T01:30:54.999Z,3.40
2023-04-20T01:33:25.532Z,3.50
2023-04-20T01:35:54.229Z,3.80
2023-04-20T01:38:24.410Z,3.27
2023-04-20T01:40:56.294Z,3.43
2023-04-20T01:43:24.429Z,2.90
2023-04-20T01:45:52.507Z,3.60
2023-04-20T01:48:20.817Z,3.00
2023-04-20T01:50:53.512Z,3.47
2023-04-20T01:53:22.015Z,3.53
2023-04-20T01:55:51.758Z,2.90
2023-04-20T01:58:22.028Z,3.20
2023-04-20T02:00:52.452Z,3.80
2023-04-20T02:03:21.953Z,3.80
2023-04-20T02:05:50.239Z,2.90
2023-04-20T02:08:22.832Z,3.20
2023-04-20T02:10:51.003Z,3.63
2023-04-20T02:13:18.946Z,3.20
2023-04-20T02:15:50.965Z,4.33
2023-04-20T02:18:19.141Z,3.63
2023-04-20T02:20:47.306Z,3.50
2023-04-20T02:23:15.564Z,3.90
2023-04-20T02:25:43.707Z,3.30
2023-04-20T02:28:13.331Z,3.57
2023-04-20T02:30:41.317Z,3.10
2023-04-20T02:33:10.961Z,3.20
2023-04-20T02:35:39.316Z,10.40
2023-04-20T02:38:07.411Z,28.90
2023-04-20T02:40:35.378Z,12.70
2023-04-20T02:43:09.686Z,4.87
2023-04-20T02:45:40.912Z,3.80
2023-04-20T02:48:14.739Z,3.47
2023-04-20T02:50:43.168Z,3.23
2023-04-20T02:53:23.806Z,3.80
2023-04-20T02:56:01.208Z,3.70
2023-04-20T02:58:56.597Z,3.20
2023-04-20T03:01:37.277Z,4.77
2023-04-20T03:04:13.821Z,3.57
2023-04-20T03:06:51.517Z,3.97
2023-04-20T03:09:25.417Z,3.60
2023-04-20T03:11:56.237Z,3.77
2023-04-20T03:14:46.148Z,3.70
2023-04-20T03:17:17.559Z,3.70
2023-04-20T03:19:46.921Z,9.53
2023-04-20T03:22:15.205Z,16.63
2023-04-20T03:24:43.629Z,5.20
2023-04-20T03:27:22.880Z,3.60
2023-04-20T03:30:03.429Z,3.60
2023-04-20T03:32:33.670Z,3.37
2023-04-20T03:35:03.674Z,3.60
2023-04-20T03:37:31.974Z,3.27
2023-04-20T03:40:00.678Z,3.30
2023-04-20T03:42:30.140Z,3.93
2023-04-20T03:44:58.372Z,3.47
2023-04-20T03:47:26.420Z,3.77
2023-04-20T03:49:54.744Z,3.67
2023-04-20T03:52:24.164Z,4.00
2023-04-20T03:54:52.531Z,4.13
2023-04-20T03:57:21.172Z,4.00
2023-04-20T03:59:49.590Z,4.17
2023-04-20T04:02:22.879Z,4.23
2023-04-20T04:04:52.776Z,3.67
2023-04-20T04:07:24.552Z,4.17
2023-04-20T04:09:53.439Z,4.23
2023-04-20T04:12:21.899Z,4.57
2023-04-20T04:14:51.204Z,4.03
2023-04-20T04:17:21.563Z,4.50
2023-04-20T04:19:49.448Z,4.20
2023-04-20T04:22:17.688Z,3.97
2023-04-20T04:25:03.795Z,4.40
2023-04-20T04:27:35.191Z,4.60
2023-04-20T04:30:04.516Z,4.93
2023-04-20T04:32:34.612Z,4.33
2023-04-20T04:35:03.655Z,5.00
2023-04-20T04:37:32.231Z,4.50
2023-04-20T04:40:07.327Z,4.87
2023-04-20T04:42:37.454Z,4.43
2023-04-20T04:45:10.227Z,4.13
2023-04-20T04:47:42.546Z,4.00
2023-04-20T04:50:11.617Z,4.40
2023-04-20T04:52:40.961Z,4.93
2023-04-20T04:55:11.481Z,4.60
2023-04-20T04:57:39.825Z,4.70
2023-04-20T05:00:12.865Z,4.70
2023-04-20T05:02:41.036Z,3.90
2023-04-20T05:05:10.249Z,5.20
2023-04-20T05:07:40.126Z,4.43
2023-04-20T05:10:11.435Z,4.50
2023-04-20T05:12:41.656Z,4.23
2023-04-20T05:15:10.377Z,4.43
2023-04-20T05:17:38.595Z,4.50
2023-04-20T05:20:10.425Z,4.40
2023-04-20T05:22:38.386Z,4.40
2023-04-20T05:25:07.290Z,4.50
2023-04-20T05:27:36.633Z,3.83
2023-04-20T05:30:17.022Z,4.20
2023-04-20T05:32:52.506Z,4.50
2023-04-20T05:35:21.614Z,4.37
2023-04-20T05:37:50.287Z,3.97
2023-04-20T05:40:18.181Z,4.53
2023-04-20T05:42:49.018Z,4.03
2023-04-20T05:45:17.128Z,3.97
2023-04-20T05:47:53.489Z,4.70
2023-04-20T05:50:27.090Z,3.83
2023-04-20T05:52:55.344Z,5.13
2023-04-20T05:55:23.568Z,4.10
2023-04-20T05:57:53.934Z,4.47
2023-04-20T06:00:25.714Z,5.00
2023-04-20T06:02:55.718Z,4.40
2023-04-20T06:05:23.929Z,3.97
2023-04-20T06:07:53.006Z,4.70
2023-04-20T06:10:21.890Z,4.20
2023-04-20T06:12:51.139Z,3.97
2023-04-20T06:15:20.766Z,4.10
2023-04-20T06:17:48.801Z,4.33
2023-04-20T06:20:17.349Z,4.03
2023-04-20T06:22:46.366Z,4.37
2023-04-20T06:25:15.281Z,4.40
2023-04-20T06:27:43.592Z,4.27
2023-04-20T06:30:14.570Z,4.40
2023-04-20T06:32:43.778Z,4.50
2023-04-20T06:35:11.896Z,4.63
2023-04-20T06:37:40.815Z,4.57
2023-04-20T06:40:09.889Z,4.83
2023-04-20T06:42:40.556Z,4.30
2023-04-20T06:45:10.275Z,4.57
2023-04-20T06:47:38.997Z,4.50
2023-04-20T06:50:10.873Z,4.00
2023-04-20T06:52:42.233Z,4.10
2023-04-20T06:55:11.998Z,3.50
2023-04-20T06:57:40.190Z,4.30
2023-04-20T07:00:09.747Z,3.63
2023-04-20T07:02:45.502Z,4.40
2023-04-20T07:05:19.315Z,3.73
2023-04-20T07:07:47.640Z,4.70
2023-04-20T07:10:18.216Z,4.67
2023-04-20T07:12:46.806Z,4.03
2023-04-20T07:15:15.931Z,4.50
2023-04-20T07:17:44.409Z,4.37
2023-04-20T07:20:13.031Z,4.47
2023-04-20T07:22:42.549Z,4.00
2023-04-20T07:25:11.697Z,4.37
2023-04-20T07:27:42.044Z,4.10
2023-04-20T07:30:12.319Z,4.30
2023-04-20T07:32:42.316Z,4.57
2023-04-20T07:35:13.376Z,3.77
2023-04-20T07:37:42.842Z,3.90
2023-04-20T07:40:12.530Z,4.23
2023-04-20T07:42:42.254Z,4.20
2023-04-20T07:45:11.693Z,3.80
2023-04-20T07:47:43.876Z,3.90
2023-04-20T07:50:12.207Z,3.50
2023-04-20T07:52:40.516Z,3.80
2023-04-20T07:55:11.971Z,3.97
2023-04-20T07:57:42.783Z,4.17
2023-04-20T08:00:14.209Z,4.03
2023-04-20T08:02:43.403Z,3.30
2023-04-20T08:05:14.109Z,3.50
2023-04-20T08:07:42.678Z,4.10
2023-04-20T08:10:12.429Z,4.17
2023-04-20T08:12:41.551Z,3.80
2023-04-20T08:15:12.868Z,3.93
2023-04-20T08:17:42.539Z,3.50
2023-04-20T08:20:11.578Z,3.30
2023-04-20T08:22:40.132Z,3.50
2023-04-20T08:25:08.959Z,3.90
2023-04-20T08:27:38.563Z,4.37
2023-04-20T08:30:07.947Z,3.50
2023-04-20T08:32:36.342Z,3.27
2023-04-20T08:35:08.634Z,3.70
2023-04-20T08:37:37.452Z,3.90
2023-04-20T08:40:07.642Z,3.90
2023-04-20T08:42:35.902Z,4.17
2023-04-20T08:45:08.903Z,3.17
2023-04-20T08:47:38.032Z,3.40
2023-04-20T08:50:07.709Z,3.53
2023-04-20T08:52:38.611Z,3.50
2023-04-20T08:55:08.707Z,3.50
2023-04-20T08:57:36.595Z,3.50
2023-04-20T09:00:13.612Z,3.70
2023-04-20T09:02:52.563Z,3.63
2023-04-20T09:05:29.120Z,3.03
2023-04-20T09:07:58.898Z,3.40
2023-04-20T09:10:40.278Z,2.70
2023-04-20T09:13:09.309Z,3.20
2023-04-20T09:15:38.688Z,2.97
2023-04-20T09:18:15.505Z,3.73
2023-04-20T09:20:44.355Z,3.87
2023-04-20T09:23:14.626Z,3.00
2023-04-20T09:25:46.103Z,3.57
2023-04-20T09:28:15.026Z,3.13
2023-04-20T09:30:48.474Z,2.80
2023-04-20T09:33:20.427Z,3.03
2023-04-20T09:35:50.718Z,2.90
2023-04-20T09:38:19.007Z,3.37
2023-04-20T09:40:47.323Z,2.47
2023-04-20T09:43:19.807Z,2.83
2023-04-20T09:45:52.719Z,2.70
2023-04-20T09:48:22.428Z,3.30
2023-04-20T09:50:51.702Z,3.10
2023-04-20T09:53:23.523Z,2.80
2023-04-20T09:55:54.452Z,3.07
2023-04-20T09:58:27.377Z,3.03
2023-04-20T10:00:56.936Z,2.60
2023-04-20T10:03:26.025Z,3.03
2023-04-20T10:05:55.602Z,2.83
2023-04-20T10:08:25.366Z,2.77
2023-04-20T10:10:56.672Z,2.87
2023-04-20T10:13:35.161Z,2.70
2023-04-20T10:16:04.863Z,2.90
2023-04-20T10:18:33.101Z,2.90
2023-04-20T10:21:09.617Z,3.00
2023-04-20T10:23:48.818Z,3.00
2023-04-20T10:26:18.080Z,2.40
2023-04-20T10:28:48.088Z,2.83
2023-04-20T10:31:17.850Z,2.77
2023-04-20T10:33:53.927Z,2.50
2023-04-20T10:36:25.503Z,3.30
2023-04-20T10:38:56.181Z,2.60
2023-04-20T10:41:31.140Z,1.93
2023-04-20T10:44:09.207Z,3.37
2023-04-20T10:46:39.462Z,2.47
2023-04-20T10:49:07.600Z,2.47
2023-04-20T10:51:36.409Z,2.70
2023-04-20T10:54:06.358Z,2.93
2023-04-20T10:56:42.244Z,1.73
2023-04-20T10:59:11.624Z,2.67
2023-04-20T11:01:41.984Z,2.03
2023-04-20T11:04:11.908Z,2.00
2023-04-20T11:06:40.709Z,1.90
2023-04-20T11:09:23.954Z,2.53
2023-04-20T11:12:02.343Z,2.70
2023-04-20T11:14:31.300Z,2.27
2023-04-20T11:17:01.055Z,2.20
2023-04-20T11:19:30.656Z,2.80
2023-04-20T11:22:00.378Z,2.33
2023-04-20T11:24:30.749Z,3.37
2023-04-20T11:27:04.834Z,2.07
2023-04-20T11:29:35.639Z,2.43
2023-04-20T11:32:09.929Z,2.90
2023-04-20T11:34:41.099Z,2.93
2023-04-20T11:37:13.118Z,2.93
2023-04-20T11:39:41.468Z,2.27
2023-04-20T11:42:09.808Z,2.33
2023-04-20T11:44:40.501Z,2.77
2023-04-20T11:47:11.349Z,2.57
2023-04-20T11:49:39.280Z,2.43
2023-04-20T11:52:07.523Z,2.50
2023-04-20T11:54:35.429Z,2.43
2023-04-20T11:57:04.799Z,2.60
2023-04-20T11:59:32.672Z,2.47
2023-04-20T12:02:04.167Z,3.00
2023-04-20T12:04:34.847Z,2.77
2023-04-20T12:07:03.353Z,2.33
2023-04-20T12:09:36.132Z,2.80
2023-04-20T12:12:04.188Z,2.47
2023-04-20T12:14:33.695Z,2.53
2023-04-20T12:17:03.835Z,2.10
2023-04-20T12:19:33.534Z,2.20
2023-04-20T12:22:01.435Z,2.23
2023-04-20T12:24:29.699Z,2.37
2023-04-20T12:26:58.178Z,2.43
2023-04-20T12:29:26.856Z,2.60
2023-04-20T12:31:56.544Z,2.33
2023-04-20T12:34:24.839Z,2.90
2023-04-20T12:36:58.249Z,2.30
2023-04-20T12:39:26.161Z,2.53
2023-04-20T12:41:58.845Z,2.40
2023-04-20T12:44:27.319Z,2.13
2023-04-20T12:46:55.308Z,2.37
2023-04-20T12:49:26.243Z,2.60
2023-04-20T12:51:54.246Z,1.80
2023-04-20T12:54:23.981Z,2.10
2023-04-20T12:56:52.223Z,2.47
2023-04-20T12:59:20.153Z,2.70
2023-04-20T13:01:48.318Z,2.20
2023-04-20T13:04:16.583Z,1.87
2023-04-20T13:06:44.761Z,2.30
2023-04-20T13:09:12.843Z,1.90
2023-04-20T13:11:42.476Z,2.50
2023-04-20T13:14:10.367Z,2.40
2023-04-20T13:16:38.639Z,2.80
2023-04-20T13:19:06.553Z,3.17
2023-04-20T13:21:34.506Z,1.90
2023-04-20T13:24:02.478Z,2.30
2023-04-20T13:26:30.501Z,2.00
2023-04-20T13:28:59.941Z,2.17
2023-04-20T13:31:28.215Z,2.13
2023-04-20T13:33:56.551Z,2.53
2023-04-20T13:36:25.351Z,2.07
2023-04-20T13:38:53.796Z,2.10
2023-04-20T13:41:21.969Z,2.57
2023-04-20T13:43:50.483Z,2.30
2023-04-20T13:46:20.829Z,2.50
2023-04-20T13:48:49.160Z,2.53
2023-04-20T13:51:17.010Z,2.37
2023-04-20T13:53:45.034Z,1.87
2023-04-20T13:56:16.566Z,2.43
2023-04-20T13:58:47.664Z,2.47
2023-04-20T14:01:17.377Z,2.67
2023-04-20T14:03:49.481Z,2.10
2023-04-20T14:06:17.497Z,2.23
2023-04-20T14:08:45.679Z,2.17
2023-04-20T14:11:14.633Z,2.17
2023-04-20T14:13:44.154Z,2.20
2023-04-20T14:16:14.332Z,2.13
2023-04-20T14:18:42.416Z,2.37
2023-04-20T14:21:12.079Z,2.10
2023-04-20T14:23:43.327Z,2.43
2023-04-20T14:26:13.591Z,2.27
2023-04-20T14:28:41.557Z,2.10
2023-04-20T14:31:09.700Z,2.20
2023-04-20T14:33:38.625Z,2.37
2023-04-20T14:36:08.558Z,1.70
2023-04-20T14:38:38.161Z,2.40
2023-04-20T14:41:08.546Z,2.43
2023-04-20T14:43:37.290Z,2.27
2023-04-20T14:46:06.606Z,3.00
2023-04-20T14:48:38.207Z,3.20
2023-04-20T14:51:09.170Z,3.23
2023-04-20T14:53:38.479Z,3.33
2023-04-20T14:56:07.439Z,3.30
2023-04-20T14:58:38.274Z,3.10
2023-04-20T15:01:06.760Z,3.47
2023-04-20T15:03:36.384Z,3.67
2023-04-20T15:06:04.690Z,3.17
2023-04-20T15:08:33.751Z,4.17
2023-04-20T15:11:05.090Z,3.30
2023-04-20T15:13:34.102Z,3.37
2023-04-20T15:16:02.236Z,3.57
2023-04-20T15:18:30.699Z,2.83
2023-04-20T15:20:58.615Z,2.77
2023-04-20T15:23:27.002Z,2.87
2023-04-20T15:25:54.892Z,3.20
2023-04-20T15:28:24.294Z,3.43
2023-04-20T15:30:52.381Z,3.40
2023-04-20T15:33:23.663Z,3.20
2023-04-20T15:35:52.074Z,2.83
2023-04-20T15:38:20.363Z,3.40
2023-04-20T15:40:48.510Z,3.50
2023-04-20T15:43:16.314Z,2.97
2023-04-20T15:45:45.831Z,3.50
2023-04-20T15:48:18.687Z,3.70
2023-04-20T15:50:51.454Z,3.07
2023-04-20T15:53:20.035Z,3.57
2023-04-20T15:55:48.086Z,3.20
2023-04-20T15:58:16.342Z,3.00
2023-04-20T16:00:46.299Z,3.10
2023-04-20T16:03:15.638Z,3.53
2023-04-20T16:05:43.579Z,2.90
2023-04-20T16:08:13.098Z,3.67
2023-04-20T16:10:41.677Z,3.20
2023-04-20T16:13:09.917Z,3.30
2023-04-20T16:15:41.717Z,3.13
2023-04-20T16:18:11.641Z,3.40
2023-04-20T16:20:41.524Z,3.77
2023-04-20T16:23:09.554Z,3.40
2023-04-20T16:25:38.593Z,3.60
2023-04-20T16:28:06.808Z,3.90
2023-04-20T16:30:36.959Z,3.60
2023-04-20T16:33:06.210Z,3.53
2023-04-20T16:35:35.989Z,4.13
2023-04-20T16:38:04.673Z,3.80
2023-04-20T16:40:33.789Z,3.90
2023-04-20T16:43:02.793Z,3.73
2023-04-20T16:45:34.258Z,3.90
2023-04-20T16:48:02.594Z,4.37
2023-04-20T16:50:31.916Z,3.83
2023-04-20T16:53:01.716Z,4.90
2023-04-20T16:55:29.990Z,5.23
2023-04-20T16:58:00.630Z,4.50
2023-04-20T17:00:29.069Z,5.00
2023-04-20T17:03:01.250Z,4.60
2023-04-20T17:05:30.191Z,5.40
2023-04-20T17:08:01.927Z,5.37
2023-04-20T17:10:32.602Z,5.07
2023-04-20T17:13:00.568Z,5.33
2023-04-20T17:15:28.587Z,6.43
2023-04-20T17:17:57.213Z,8.90
2023-04-20T17:20:28.164Z,6.00
2023-04-20T17:22:56.174Z,6.30
2023-04-20T17:25:25.490Z,5.83
2023-04-20T17:27:55.244Z,5.87
2023-04-20T17:30:24.176Z,6.67
2023-04-20T17:32:54.133Z,6.93
2023-04-20T17:35:22.876Z,6.13
2023-04-20T17:37:50.763Z,6.73
2023-04-20T17:40:19.165Z,7.03
2023-04-20T17:42:48.654Z,7.47
2023-04-20T17:45:21.231Z,6.53
2023-04-20T17:47:53.892Z,7.50
2023-04-20T17:50:22.747Z,7.30
2023-04-20T17:52:51.485Z,8.07
2023-04-20T17:55:22.659Z,7.57
2023-04-20T17:57:52.302Z,12.33
2023-04-20T18:00:20.446Z,16.60
2023-04-20T18:02:48.464Z,17.30
2023-04-20T18:05:17.053Z,11.87
2023-04-20T18:07:45.471Z,9.90
2023-04-20T18:10:13.645Z,8.90
2023-04-20T18:12:42.312Z,8.93
2023-04-20T18:15:13.099Z,7.80
2023-04-20T18:17:44.385Z,8.00
2023-04-20T18:20:13.469Z,9.00
2023-04-20T18:22:41.444Z,8.60
2023-04-20T18:25:10.702Z,8.97
2023-04-20T18:27:38.793Z,8.57
2023-04-20T18:30:08.725Z,8.43
2023-04-20T18:32:38.554Z,7.60
2023-04-20T18:35:08.926Z,8.53
2023-04-20T18:37:37.511Z,8.80
2023-04-20T18:40:07.252Z,8.30
2023-04-20T18:42:35.465Z,8.80
2023-04-20T18:45:06.092Z,9.03
2023-04-20T18:47:34.643Z,9.43
2023-04-20T18:50:06.907Z,10.30
2023-04-20T18:52:37.293Z,10.73
2023-04-20T18:55:06.645Z,9.47
2023-04-20T18:57:34.916Z,10.30
2023-04-20T19:00:07.503Z,9.20
2023-04-20T19:02:35.657Z,10.00
2023-04-20T19:05:05.735Z,10.73
2023-04-20T19:07:33.668Z,11.17
2023-04-20T19:10:01.970Z,10.33
2023-04-20T19:12:33.721Z,11.10
2023-04-20T19:15:03.553Z,11.40
2023-04-20T19:17:31.556Z,11.03
2023-04-20T19:19:59.860Z,11.40
2023-04-20T19:22:30.846Z,11.40
2023-04-20T19:25:03.625Z,11.53
2023-04-20T19:27:34.005Z,12.40
2023-04-20T19:30:05.271Z,11.87
2023-04-20T19:32:34.526Z,12.33
2023-04-20T19:35:04.358Z,11.80
2023-04-20T19:37:34.139Z,11.83
2023-04-20T19:40:02.101Z,10.67
2023-04-20T19:42:30.670Z,11.83
2023-04-20T19:44:59.764Z,12.00
2023-04-20T19:47:27.714Z,11.93
2023-04-20T19:49:57.507Z,11.83
2023-04-20T19:52:26.126Z,12.93
2023-04-20T19:54:55.482Z,12.60
2023-04-20T19:57:25.811Z,12.63
2023-04-20T19:59:54.019Z,13.23
2023-04-20T20:02:22.352Z,12.90
2023-04-20T20:04:50.829Z,12.10
2023-04-20T20:07:19.126Z,12.70
2023-04-20T20:09:47.371Z,11.63
2023-04-20T20:12:16.548Z,12.27
2023-04-20T20:14:44.572Z,13.37
2023-04-20T20:17:13.790Z,12.50
2023-04-20T20:19:44.819Z,12.43
2023-04-20T20:22:15.322Z,12.80
2023-04-20T20:24:44.404Z,12.40
2023-04-20T20:27:12.656Z,12.07
2023-04-20T20:29:42.681Z,13.10
2023-04-20T20:32:11.963Z,12.90
2023-04-20T20:34:39.956Z,11.93
2023-04-20T20:37:10.130Z,13.40
2023-04-20T20:39:38.351Z,12.57
2023-04-20T20:42:07.815Z,12.80
2023-04-20T20:44:39.956Z,12.20
2023-04-20T20:47:09.511Z,12.23
2023-04-20T20:49:38.440Z,11.70
2023-04-20T20:52:07.225Z,12.63
2023-04-20T20:54:35.472Z,12.53
2023-04-20T20:57:09.973Z,12.77
2023-04-20T20:59:53.549Z,13.30
2023-04-20T21:02:26.593Z,13.67
2023-04-20T21:04:59.742Z,13.30
2023-04-20T21:07:30.722Z,12.97
2023-04-20T21:10:06.122Z,13.67
2023-04-20T21:12:37.936Z,12.97
2023-04-20T21:15:08.052Z,14.70
2023-04-20T21:17:43.441Z,12.90
2023-04-20T21:20:23.735Z,14.67
2023-04-20T21:23:06.554Z,13.63
2023-04-20T21:25:40.784Z,13.83
2023-04-20T21:28:18.062Z,13.63
2023-04-20T21:30:58.154Z,14.13
2023-04-20T21:33:39.734Z,13.93
2023-04-20T21:41:36.684Z,13.90
2023-04-20T21:44:06.320Z,13.80
2023-04-20T21:46:34.350Z,13.53
2023-04-20T21:49:03.677Z,13.83
2023-04-20T21:51:31.884Z,13.90
2023-04-20T21:54:00.125Z,15.40
2023-04-20T21:56:28.282Z,14.27
2023-04-20T21:58:56.307Z,14.63
2023-04-20T22:01:24.363Z,14.60
2023-04-20T22:03:52.560Z,14.93
2023-04-20T22:06:22.232Z,13.63
2023-04-20T22:08:50.580Z,15.40
2023-04-20T22:11:18.435Z,13.77
2023-04-20T22:13:46.423Z,13.73
2023-04-20T22:16:14.474Z,15.20
2023-04-20T22:18:43.584Z,15.23
2023-04-20T22:21:11.596Z,14.30
2023-04-20T22:23:40.804Z,14.77
2023-04-20T22:26:09.097Z,13.60
2023-04-20T22:28:37.403Z,13.93
2023-04-20T22:31:05.810Z,13.37
2023-04-20T22:33:34.154Z,13.23
2023-04-20T22:36:04.654Z,13.73
2023-04-20T22:38:35.437Z,13.40
2023-04-20T22:41:05.046Z,14.30
2023-04-20T22:43:32.995Z,14.13
2023-04-20T22:46:00.792Z,13.67
2023-04-20T22:48:29.433Z,13.60
2023-04-20T22:51:00.564Z,15.87
2023-04-20T22:53:30.119Z,14.20
2023-04-20T22:56:06.143Z,14.50
2023-04-20T22:58:34.379Z,14.70
2023-04-20T23:01:02.377Z,14.57
2023-04-20T23:03:30.987Z,15.03
2023-04-20T23:05:59.291Z,15.43
2023-04-20T23:08:30.926Z,13.30
2023-04-20T23:10:59.132Z,14.87
2023-04-20T23:13:28.450Z,14.63
2023-04-20T23:15:56.425Z,15.60
2023-04-20T23:18:24.375Z,16.03
2023-04-20T23:20:52.264Z,15.40
2023-04-20T23:23:22.689Z,15.73
2023-04-20T23:25:51.133Z,15.47
2023-04-20T23:28:19.005Z,15.67
2023-04-20T23:30:49.217Z,14.70
2023-04-20T23:33:17.289Z,17.70
2023-04-20T23:35:45.660Z,15.70
2023-04-20T23:38:14.011Z,15.10
2023-04-20T23:40:41.962Z,16.87
2023-04-20T23:43:10.414Z,14.23
2023-04-20T23:45:38.426Z,15.47
2023-04-20T23:48:08.577Z,15.60
2023-04-20T23:50:37.726Z,16.70
2023-04-20T23:53:05.804Z,14.60
2023-04-20T23:55:34.312Z,15.60
2023-04-20T23:58:02.215Z,16.60
